Time;durP1;ratioP1;P1;durP2;ratioP2;P2;SDS_P1;SDS_P2;PMS_P1;PMS_P2;Temp;Humidity;BMP_temperature;BMP_pressure;BME280_temperature;BME280_humidity;BME280_pressure;Samples;Min_cycle;Max_cycle;Signal;HPM_P1;HPM_P2
2024/02/14 00:08:55;;;;;;;8.30;3.30;;;7.50;99.90;;;;;;5112564;23;20069;31
2024/02/14 00:12:17;;;;;;;7.00;3.20;;;7.50;99.90;;;;;;4915356;29;20063;-83
2024/02/14 00:15:13;;;;;;;8.02;3.28;;;7.00;99.90;;;;;;4909128;29;20029;-83
2024/02/14 00:18:19;;;;;;;6.70;3.40;;;7.40;99.90;;;;;;4917734;29;20031;-81
2024/02/14 00:21:39;;;;;;;7.35;3.17;;;7.40;99.90;;;;;;4920136;29;20096;-82
2024/02/14 00:24:43;;;;;;;9.03;3.40;;;7.30;99.90;;;;;;4917464;29;20410;-83
2024/02/14 00:28:03;;;;;;;9.13;3.63;;;7.60;99.90;;;;;;4911810;29;20044;-81
2024/02/14 00:31:25;;;;;;;6.95;2.97;;;7.50;99.90;;;;;;4926444;28;20080;-83
2024/02/14 00:37:37;;;;;;;10.13;3.60;;;7.60;99.90;;;;;;4934834;29;20035;-82
2024/02/14 00:40:38;;;;;;;6.78;3.08;;;7.10;99.90;;;;;;4925996;29;20046;-83
2024/02/14 00:43:36;;;;;;;6.25;3.22;;;7.60;99.90;;;;;;4907461;29;20092;-81
2024/02/14 00:46:54;;;;;;;6.45;3.35;;;7.40;99.90;;;;;;4915499;29;20060;-82
2024/02/14 00:49:42;;;;;;;6.47;3.03;;;7.50;99.90;;;;;;4909638;29;20076;-83
2024/02/14 00:52:34;;;;;;;9.20;3.58;;;7.40;99.90;;;;;;4902210;29;20073;-82
2024/02/14 00:55:34;;;;;;;7.45;3.08;;;7.30;99.90;;;;;;4909056;29;20033;-81
2024/02/14 00:58:38;;;;;;;7.88;3.15;;;7.30;99.90;;;;;;4893202;29;20041;-78
2024/02/14 01:01:35;;;;;;;7.63;3.22;;;7.50;99.90;;;;;;4907780;29;20051;-82
2024/02/14 01:04:42;;;;;;;;;;;;;;;;;;;;;
2024/02/14 01:07:31;;;;;;;10.55;3.10;;;7.50;99.90;;;;;;4912301;29;20072;-83
2024/02/14 01:10:04;;;;;;;8.13;2.80;;;7.30;99.90;;;;;;4882071;29;20460;-86
2024/02/14 01:13:09;;;;;;;6.72;2.78;;;7.40;99.90;;;;;;4908158;29;20114;-82
2024/02/14 01:15:51;;;;;;;7.38;2.60;;;7.50;99.90;;;;;;4889603;29;20037;-83
2024/02/14 01:18:25;;;;;;;7.28;2.90;;;6.50;99.90;;;;;;4911713;29;20040;-82
2024/02/14 01:21:22;;;;;;;6.00;2.45;;;7.60;99.90;;;;;;4914169;29;20025;-82
2024/02/14 01:24:35;;;;;;;8.23;3.50;;;7.60;99.90;;;;;;4917657;29;20027;-82
2024/02/14 01:27:08;;;;;;;5.90;2.63;;;7.30;99.90;;;;;;4925412;29;20044;-81
2024/02/14 01:32:48;;;;;;;6.35;2.72;;;7.60;99.90;;;;;;4923152;29;20065;-84
2024/02/14 01:37:52;;;;;;;11.02;4.03;;;7.70;99.90;;;;;;4997562;23;20055;-84
2024/02/14 02:01:23;;;;;;;7.88;2.70;;;7.80;99.90;;;;;;4980036;26;20047;-83
2024/02/14 02:07:10;;;;;;;9.18;3.00;;;7.90;99.90;;;;;;4989249;28;20042;-83
2024/02/14 02:13:01;;;;;;;8.75;2.55;;;7.80;99.90;;;;;;4982175;28;20030;-82
2024/02/14 02:15:56;;;;;;;7.65;2.70;;;7.80;99.90;;;;;;4970598;28;20042;-82
2024/02/14 02:18:29;;;;;;;5.72;2.45;;;7.50;99.90;;;;;;4978727;28;20023;-81
2024/02/14 02:21:07;;;;;;;6.20;2.75;;;7.80;99.90;;;;;;4949634;28;20133;-81
2024/02/14 02:24:33;;;;;;;9.35;3.83;;;7.80;99.90;;;;;;4968519;28;20041;-81
2024/02/14 02:27:58;;;;;;;9.02;2.90;;;7.70;99.90;;;;;;4976644;28;20046;-81
2024/02/14 02:31:22;;;;;;;5.55;2.55;;;7.80;99.90;;;;;;4977740;28;20023;-81
2024/02/14 02:34:06;;;;;;;5.35;2.42;;;7.90;99.90;;;;;;4976685;28;20035;-81
2024/02/14 02:37:09;;;;;;;6.28;2.58;;;7.90;99.90;;;;;;4982737;28;20728;-81
2024/02/14 02:40:32;;;;;;;5.03;2.67;;;7.80;99.90;;;;;;4980758;28;20098;-81
2024/02/14 02:43:42;;;;;;;7.97;2.70;;;7.80;99.90;;;;;;4989041;28;20200;-83
2024/02/14 02:46:17;;;;;;;5.05;2.40;;;7.80;99.90;;;;;;4987678;28;20023;-83
2024/02/14 02:49:22;;;;;;;6.15;2.08;;;7.70;99.90;;;;;;4975158;28;20019;-81
2024/02/14 02:52:10;;;;;;;7.47;2.28;;;7.40;99.90;;;;;;5012474;23;20037;-82
2024/02/14 02:55:17;;;;;;;7.38;2.35;;;7.50;99.90;;;;;;4976657;28;20027;-80
2024/02/14 03:00:45;;;;;;;6.88;2.40;;;8.00;99.90;;;;;;5015393;23;20050;-83
2024/02/14 03:08:36;;;;;;;7.03;2.33;;;8.10;99.90;;;;;;5282398;23;20065;-84
2024/02/14 03:24:20;;;;;;;8.27;2.30;;;8.20;99.90;;;;;;5118928;23;20070;-82
2024/02/14 03:27:18;;;;;;;7.65;2.30;;;8.30;99.90;;;;;;4992716;28;20035;-81
2024/02/14 03:30:16;;;;;;;8.20;2.13;;;8.20;99.90;;;;;;5007044;28;20042;-81
2024/02/14 03:32:49;;;;;;;6.10;2.20;;;7.70;99.90;;;;;;4968318;28;20031;-81
2024/02/14 03:35:45;;;;;;;4.85;1.98;;;8.20;99.90;;;;;;5008419;28;20035;-81
2024/02/14 03:38:41;;;;;;;7.82;2.25;;;7.90;99.90;;;;;;5003240;28;20038;-80
2024/02/14 03:41:30;;;;;;;6.03;2.50;;;8.20;99.90;;;;;;4998469;28;20073;-84
2024/02/14 03:44:06;;;;;;;4.80;2.17;;;7.90;99.90;;;;;;5002750;28;20045;-81
2024/02/14 03:47:05;;;;;;;7.85;2.28;;;9.20;99.90;;;;;;4958080;29;20048;-83
2024/02/14 03:49:40;;;;;;;5.97;2.08;;;8.00;99.90;;;;;;4953466;29;20051;-81
2024/02/14 03:55:56;;;;;;;6.80;2.50;;;8.00;99.90;;;;;;4957717;29;20042;-84
2024/02/14 04:01:42;;;;;;;8.32;2.50;;;8.20;99.90;;;;;;4956097;29;20018;-83
2024/02/14 04:05:03;;;;;;;5.80;2.30;;;7.80;99.90;;;;;;4956251;29;20035;-83
2024/02/14 04:08:09;;;;;;;5.38;2.35;;;8.00;99.90;;;;;;4951517;29;20027;-82
2024/02/14 04:14:07;;;;;;;6.03;2.30;;;9.10;99.90;;;;;;4959460;29;20039;-81
2024/02/14 04:16:54;;;;;;;6.35;2.28;;;8.30;99.90;;;;;;4965477;28;20031;-82
2024/02/14 04:19:34;;;;;;;7.45;2.42;;;8.30;99.90;;;;;;5033164;28;20014;-84
2024/02/14 04:22:17;;;;;;;4.20;2.03;;;8.30;99.90;;;;;;5018823;28;20029;-84
2024/02/14 04:25:33;;;;;;;6.78;2.05;;;8.10;99.90;;;;;;5014578;28;20094;-81
2024/02/14 04:28:13;;;;;;;8.95;2.53;;;8.50;99.90;;;;;;5030330;28;20022;-82
2024/02/14 04:31:15;;;;;;;5.70;1.98;;;7.50;99.90;;;;;;5002738;28;20026;-82
2024/02/14 04:40:28;;;;;;;9.02;2.08;;;7.80;99.90;;;;;;5020465;28;20065;-82
2024/02/14 04:49:54;;;;;;;5.90;1.95;;;7.90;99.90;;;;;;4997679;28;20036;-81
2024/02/14 04:52:37;;;;;;;6.55;2.30;;;7.80;99.90;;;;;;5013975;28;20184;-83
2024/02/14 05:05:26;;;;;;;8.80;2.70;;;7.90;99.90;;;;;;5017365;28;20047;-82
2024/02/14 05:14:36;;;;;;;7.85;2.38;;;7.90;99.90;;;;;;4992629;28;20042;-82
2024/02/14 05:17:37;;;;;;;3.65;1.70;;;8.00;99.90;;;;;;4982134;28;20031;-83
2024/02/14 05:25:29;;;;;;;8.75;2.25;;;7.90;99.90;;;;;;5060411;23;20436;-83
2024/02/14 05:28:05;;;;;;;9.68;2.70;;;8.20;99.90;;;;;;5008347;28;20022;-80
2024/02/14 05:30:45;;;;;;;6.43;2.88;;;7.90;99.90;;;;;;4968664;28;20036;-82
2024/02/14 05:33:42;;;;;;;7.68;2.65;;;7.80;99.90;;;;;;4956265;28;20032;-83
2024/02/14 05:36:36;;;;;;;5.45;2.38;;;8.60;99.90;;;;;;4972239;28;20019;-83
2024/02/14 05:39:45;;;;;;;4.85;2.63;;;7.70;99.90;;;;;;4997937;28;20019;-82
2024/02/14 05:46:07;;;;;;;8.38;2.70;;;8.20;99.90;;;;;;4977815;28;20045;-80
2024/02/14 05:51:45;;;;;;;9.45;2.70;;;7.90;99.90;;;;;;4989545;28;20102;-80
2024/02/14 05:54:18;;;;;;;7.50;2.40;;;7.90;99.90;;;;;;4972543;28;20070;-82
2024/02/14 05:56:57;;;;;;;9.02;2.80;;;6.80;99.90;;;;;;4967828;28;20070;-82
2024/02/14 05:59:27;;;;;;;6.55;2.60;;;7.90;99.90;;;;;;4955338;29;20055;-82
2024/02/14 06:02:15;;;;;;;8.02;2.28;;;7.90;99.90;;;;;;4931128;28;20043;-81
2024/02/14 06:04:56;;;;;;;7.07;2.47;;;8.00;99.90;;;;;;4970764;28;20039;-82
2024/02/14 06:07:55;;;;;;;5.82;2.50;;;7.70;99.90;;;;;;4967902;28;20038;-82
2024/02/14 06:10:48;;;;;;;5.38;2.20;;;8.00;99.90;;;;;;4967056;28;20082;-82
2024/02/14 06:13:45;;;;;;;6.82;2.00;;;8.00;99.90;;;;;;4948252;29;20032;-81
2024/02/14 06:16:22;;;;;;;8.93;2.47;;;7.90;99.90;;;;;;4969254;28;20047;-82
2024/02/14 06:19:30;;;;;;;7.68;2.88;;;8.00;99.90;;;;;;4969630;28;20027;-83
2024/02/14 06:25:03;;;;;;;5.97;2.55;;;7.90;99.90;;;;;;4974846;28;20116;-83
2024/02/14 06:28:25;;;;;;;6.10;2.47;;;7.80;99.90;;;;;;4950665;28;20043;-82
2024/02/14 06:38:25;;;;;;;6.40;2.38;;;8.00;99.90;;;;;;4966066;28;20106;-82
2024/02/14 06:41:55;;;;;;;8.65;2.80;;;8.00;99.90;;;;;;4971183;28;20042;-83
2024/02/14 06:48:45;;;;;;;6.38;2.58;;;7.70;99.90;;;;;;4905393;29;20039;-82
2024/02/14 06:52:18;;;;;;;6.47;2.85;;;8.00;99.90;;;;;;4935006;29;20032;-81
2024/02/14 06:55:14;;;;;;;7.35;2.70;;;8.00;99.90;;;;;;4964575;28;20094;-81
2024/02/14 06:58:22;;;;;;;9.43;2.72;;;8.10;99.90;;;;;;4956811;28;20082;-83
2024/02/14 07:01:59;;;;;;;7.57;2.70;;;8.10;99.90;;;;;;4964447;28;20032;-82
2024/02/14 07:05:29;;;;;;;7.20;2.47;;;8.20;99.90;;;;;;4983274;28;20063;-83
2024/02/14 07:08:27;;;;;;;6.78;2.47;;;8.10;99.90;;;;;;4965813;28;20016;-82
2024/02/14 07:15:15;;;;;;;7.80;3.10;;;8.20;99.90;;;;;;5005995;28;20093;-81
2024/02/14 07:18:35;;;;;;;7.70;3.15;;;7.20;99.90;;;;;;4937158;29;20371;-84
2024/02/14 07:22:08;;;;;;;;;;;;;;;;;;;;;
2024/02/14 07:28:41;;;;;;;6.32;3.15;;;8.20;99.90;;;;;;4956335;29;20030;-82
2024/02/14 07:46:31;;;;;;;6.78;4.00;;;8.00;99.90;;;;;;4979275;28;20038;-84
2024/02/14 07:55:41;;;;;;;7.07;3.65;;;8.10;99.90;;;;;;5423761;23;20338;-83
2024/02/14 07:58:31;;;;;;;8.88;3.20;;;8.20;99.90;;;;;;5001577;28;20034;-84
2024/02/14 08:01:04;;;;;;;8.43;3.45;;;8.40;99.90;;;;;;4990784;28;20019;-83
2024/02/14 08:03:59;;;;;;;9.68;3.50;;;9.20;99.90;;;;;;4988484;28;20061;-84
2024/02/14 08:06:53;;;;;;;9.50;3.50;;;6.70;99.90;;;;;;4985630;28;20035;-83
2024/02/14 08:09:22;;;;;;;9.70;4.10;;;8.30;99.90;;;;;;4977986;28;20021;-82
2024/02/14 08:11:54;;;;;;;7.07;3.35;;;8.20;99.90;;;;;;4972115;28;20042;-82
2024/02/14 08:14:23;;;;;;;7.68;3.58;;;8.30;99.90;;;;;;4993963;28;20038;-82
2024/02/14 08:17:01;;;;;;;8.02;3.53;;;8.40;99.90;;;;;;4969796;28;20031;-82
2024/02/14 08:20:29;;;;;;;8.52;4.20;;;8.00;99.90;;;;;;4984879;28;20090;-83
2024/02/14 08:23:38;;;;;;;;;;;;;;;;;;;;;
2024/02/14 08:26:33;;;;;;;5.77;3.47;;;8.30;99.90;;;;;;4989882;28;20050;-84
2024/02/14 08:32:23;;;;;;;;;;;;;;;;;;;;;
2024/02/14 08:39:29;;;;;;;10.32;3.80;;;8.50;99.90;;;;;;4946565;29;20167;-82
2024/02/14 08:42:32;;;;;;;9.15;4.60;;;8.30;99.90;;;;;;4939366;29;20027;-82
2024/02/14 08:48:45;;;;;;;9.70;4.10;;;8.60;99.90;;;;;;4942516;29;20048;-84
2024/02/14 08:51:15;;;;;;;7.82;4.72;;;8.60;99.90;;;;;;4950057;29;20107;-81
2024/02/14 08:53:44;;;;;;;14.30;4.75;;;8.70;99.90;;;;;;4932609;29;20035;-82
2024/02/14 08:56:33;;;;;;;8.52;4.30;;;8.60;99.90;;;;;;4947136;29;20047;-82
2024/02/14 08:59:04;;;;;;;7.22;4.68;;;8.60;99.90;;;;;;4931035;28;20106;-83
2024/02/14 09:01:40;;;;;;;8.93;4.57;;;10.30;99.90;;;;;;4982397;28;20113;-82
2024/02/14 09:04:09;;;;;;;9.73;4.65;;;8.70;99.90;;;;;;4960971;28;20007;-83
2024/02/14 09:06:39;;;;;;;10.10;4.15;;;8.70;99.90;;;;;;4982948;28;20106;-81
2024/02/14 09:09:14;;;;;;;11.68;4.50;;;10.00;99.90;;;;;;4974396;28;20110;-82
2024/02/14 09:11:57;;;;;;;12.95;4.45;;;9.50;99.90;;;;;;4993657;28;20031;-84
2024/02/14 09:14:27;;;;;;;6.70;4.22;;;7.40;99.90;;;;;;4974499;28;20058;-83
2024/02/14 09:16:57;;;;;;;9.75;4.28;;;7.90;99.90;;;;;;4977417;28;20023;-83
2024/02/14 09:19:56;;;;;;;8.52;5.07;;;8.90;99.90;;;;;;4978716;28;20058;-80
2024/02/14 09:22:33;;;;;;;7.72;4.00;;;8.80;99.90;;;;;;4977127;28;20023;-82
2024/02/14 09:25:10;;;;;;;10.73;4.38;;;8.90;99.90;;;;;;4996290;28;20035;-83
2024/02/14 09:27:47;;;;;;;9.93;4.07;;;9.00;99.90;;;;;;5001036;28;20019;-84
2024/02/14 09:30:17;;;;;;;8.90;3.92;;;9.00;99.90;;;;;;4990997;28;20133;-83
2024/02/14 09:33:33;;;;;;;;;;;;;;;;;;;;;
2024/02/14 09:36:21;;;;;;;6.93;3.80;;;9.10;99.90;;;;;;4968478;28;20054;-83
2024/02/14 09:38:48;;;;;;;8.07;4.40;;;9.20;99.90;;;;;;4962390;28;20030;-84
2024/02/14 09:41:41;;;;;;;11.80;4.60;;;9.10;99.90;;;;;;4992015;28;20031;-83
2024/02/14 09:44:08;;;;;;;9.25;4.43;;;9.00;99.90;;;;;;4982280;28;20027;-83
2024/02/14 09:47:14;;;;;;;7.32;4.63;;;9.20;99.90;;;;;;4991267;28;20042;-82
2024/02/14 09:49:46;;;;;;;7.82;4.30;;;9.50;99.90;;;;;;4974039;28;20011;-82
2024/02/14 09:52:15;;;;;;;9.75;4.80;;;9.10;99.90;;;;;;4957201;29;20031;-84
2024/02/14 09:54:43;;;;;;;8.57;4.30;;;9.20;99.90;;;;;;4992534;28;20015;-85
2024/02/14 09:57:13;;;;;;;10.02;4.95;;;9.20;99.90;;;;;;4992270;28;20034;-86
2024/02/14 09:59:41;;;;;;;10.65;4.70;;;9.20;99.90;;;;;;4980503;28;20015;-81
2024/02/14 10:02:10;;;;;;;9.30;4.70;;;9.40;99.90;;;;;;4979793;28;20082;-84
2024/02/14 10:04:39;;;;;;;6.95;4.55;;;8.90;99.90;;;;;;4991280;28;20035;-83
2024/02/14 10:07:11;;;;;;;8.15;3.97;;;9.50;99.90;;;;;;4976547;28;20037;-82
2024/02/14 10:09:43;;;;;;;10.32;5.22;;;9.40;99.90;;;;;;4965737;28;20035;-82
2024/02/14 10:12:26;;;;;;;7.88;4.47;;;9.30;99.90;;;;;;4982076;28;20027;-84
2024/02/14 10:15:01;;;;;;;7.40;4.78;;;9.70;99.90;;;;;;4974522;28;20046;-81
2024/02/14 10:17:34;;;;;;;7.50;4.43;;;10.50;99.90;;;;;;4987555;28;20023;-82
2024/02/14 10:20:06;;;;;;;8.27;4.70;;;9.40;99.90;;;;;;4947930;28;20170;-82
2024/02/14 10:22:41;;;;;;;8.05;4.75;;;8.20;99.90;;;;;;4968618;28;20031;-82
2024/02/14 10:25:11;;;;;;;7.55;4.63;;;9.40;99.90;;;;;;4984298;28;20015;-83
2024/02/14 10:27:39;;;;;;;9.85;4.72;;;9.50;99.90;;;;;;4985058;28;20050;-83
2024/02/14 10:30:12;;;;;;;9.93;4.47;;;8.60;99.90;;;;;;4947772;28;20083;-82
2024/02/14 10:32:48;;;;;;;11.40;6.88;;;9.60;99.90;;;;;;4989139;28;20027;-82
2024/02/14 10:35:21;;;;;;;12.35;7.50;;;8.60;99.90;;;;;;4983632;28;20049;-82
2024/02/14 10:37:53;;;;;;;10.65;6.40;;;9.30;99.90;;;;;;4971626;28;20101;-81
2024/02/14 10:40:21;;;;;;;9.65;5.30;;;9.60;99.90;;;;;;4969413;28;20061;-82
2024/02/14 10:42:50;;;;;;;9.95;4.93;;;10.60;99.90;;;;;;4967265;28;20030;-82
2024/02/14 10:45:16;;;;;;;9.63;5.65;;;9.60;99.90;;;;;;4975989;28;20031;-82
2024/02/14 10:47:47;;;;;;;10.25;5.60;;;9.60;99.90;;;;;;4990115;28;20070;-81
2024/02/14 10:50:35;;;;;;;12.05;7.50;;;9.60;99.90;;;;;;4991995;28;20345;-82
2024/02/14 10:53:05;;;;;;;9.70;6.47;;;10.80;99.90;;;;;;4959930;29;20050;-82
2024/02/14 10:55:38;;;;;;;;;;;9.50;99.90;;;;;;4988272;28;20027;-83
2024/02/14 10:58:04;;;;;;;7.72;5.22;;;9.70;99.90;;;;;;4976859;28;19925;-82
2024/02/14 11:00:37;;;;;;;9.60;5.38;;;9.70;99.90;;;;;;4977993;28;20027;-82
2024/02/14 11:03:05;;;;;;;10.75;5.20;;;9.70;99.90;;;;;;4963221;28;20043;-82
2024/02/14 11:05:31;;;;;;;14.23;9.00;;;9.70;99.90;;;;;;4972814;28;20051;-82
2024/02/14 11:08:09;;;;;;;11.90;6.90;;;9.90;99.90;;;;;;4978104;28;20027;-82
2024/02/14 11:10:39;;;;;;;20.88;11.80;;;9.80;99.90;;;;;;4979930;28;20048;-82
2024/02/14 11:13:13;;;;;;;11.50;7.00;;;9.70;99.90;;;;;;4972426;28;20030;-83
2024/02/14 11:16:00;;;;;;;18.35;8.82;;;9.90;99.90;;;;;;4959060;28;20058;-83
2024/02/14 11:18:31;;;;;;;10.85;6.93;;;9.90;99.90;;;;;;4990481;28;20094;-82
2024/02/14 11:20:59;;;;;;;10.45;7.18;;;9.70;99.90;;;;;;4973800;28;20034;-81
2024/02/14 11:23:33;;;;;;;12.27;7.75;;;9.00;99.90;;;;;;4984578;28;20030;-82
2024/02/14 11:26:08;;;;;;;10.25;7.00;;;9.90;99.90;;;;;;4977329;28;20030;-84
2024/02/14 11:28:40;;;;;;;10.93;7.13;;;9.20;99.90;;;;;;4987452;28;22043;-82
2024/02/14 11:31:10;;;;;;;;;;;10.00;99.90;;;;;;4962682;28;20045;-82
2024/02/14 11:33:36;;;;;;;10.73;6.35;;;10.00;99.90;;;;;;4991702;28;19937;-82
2024/02/14 11:36:14;;;;;;;12.60;6.90;;;10.00;99.90;;;;;;4997201;28;20059;-82
2024/02/14 11:38:41;;;;;;;9.80;6.55;;;10.10;99.90;;;;;;4970125;28;20028;-82
2024/02/14 11:41:09;;;;;;;7.70;6.03;;;10.00;99.90;;;;;;4976192;28;20035;-81
2024/02/14 11:43:51;;;;;;;14.40;7.07;;;10.00;99.90;;;;;;4977470;28;20055;-81
2024/02/14 11:46:17;;;;;;;9.93;6.32;;;11.40;99.90;;;;;;4974164;28;20042;-82
2024/02/14 11:48:49;;;;;;;7.25;5.28;;;10.70;99.90;;;;;;4989720;28;20030;-82
2024/02/14 11:51:15;;;;;;;9.30;6.55;;;10.10;99.90;;;;;;4973618;28;20027;-82
2024/02/14 11:54:04;;;;;;;9.15;5.30;;;10.40;99.90;;;;;;4994384;28;20019;-82
2024/02/14 11:56:36;;;;;;;10.70;6.70;;;10.00;99.90;;;;;;4989422;28;20082;-82
2024/02/14 11:59:19;;;;;;;8.57;5.40;;;10.10;99.90;;;;;;4972834;28;20043;-83
2024/02/14 12:02:07;;;;;;;7.85;5.15;;;10.20;99.90;;;;;;4979309;28;20022;-82
2024/02/14 12:04:53;;;;;;;6.85;5.03;;;10.00;99.90;;;;;;4978690;28;20026;-82
2024/02/14 12:07:22;;;;;;;9.20;5.32;;;11.00;99.90;;;;;;4969171;28;20035;-81
2024/02/14 12:10:00;;;;;;;9.40;5.50;;;9.80;99.90;;;;;;4965846;28;20500;-81
2024/02/14 12:12:48;;;;;;;7.22;5.18;;;10.10;99.90;;;;;;4967766;28;20107;-82
2024/02/14 12:15:15;;;;;;;9.15;5.47;;;10.10;99.90;;;;;;4969134;28;20034;-82
2024/02/14 12:17:57;;;;;;;7.40;5.47;;;9.90;99.90;;;;;;4983063;28;20039;-82
2024/02/14 12:20:36;;;;;;;8.02;5.53;;;10.00;99.90;;;;;;4959867;28;20035;-82
2024/02/14 12:23:05;;;;;;;7.38;5.32;;;10.20;99.90;;;;;;4971017;28;20062;-82
2024/02/14 12:26:07;;;;;;;8.35;6.28;;;10.00;99.90;;;;;;4985535;28;20126;-82
2024/02/14 12:29:17;;;;;;;9.70;6.68;;;10.10;99.90;;;;;;4964451;28;20091;-82
2024/02/14 12:32:05;;;;;;;8.23;5.78;;;10.20;99.90;;;;;;4929244;28;20046;-82
2024/02/14 12:34:37;;;;;;;11.75;6.18;;;10.00;99.90;;;;;;4986018;28;20043;-82
2024/02/14 12:37:09;;;;;;;10.00;5.68;;;10.30;99.90;;;;;;4967559;28;20037;-81
2024/02/14 12:40:11;;;;;;;9.32;5.93;;;10.20;99.90;;;;;;4972651;28;20027;-83
2024/02/14 12:42:42;;;;;;;8.48;5.60;;;10.40;99.90;;;;;;4973182;28;20416;-82
2024/02/14 12:45:14;;;;;;;7.97;5.57;;;10.40;99.90;;;;;;4972219;28;20078;-83
2024/02/14 12:47:43;;;;;;;7.15;5.53;;;11.30;99.90;;;;;;4971126;28;20026;-82
2024/02/14 12:50:15;;;;;;;8.90;5.30;;;10.40;99.90;;;;;;4991745;28;20057;-82
2024/02/14 12:52:44;;;;;;;8.63;5.85;;;10.50;99.90;;;;;;4968147;28;20023;-82
2024/02/14 12:55:10;;;;;;;10.55;5.57;;;10.40;99.90;;;;;;4973003;28;20130;-83
2024/02/14 12:57:40;;;;;;;8.55;5.20;;;11.20;99.90;;;;;;4986516;28;20026;-83
2024/02/14 13:36:18;;;;;;;6.30;4.18;;;10.80;99.90;;;;;;4974791;28;20042;-90
2024/02/14 13:38:45;;;;;;;6.32;3.83;;;11.00;99.90;;;;;;4957108;28;20123;-87
2024/02/14 13:41:13;;;;;;;8.38;4.50;;;11.70;99.90;;;;;;4974773;28;20077;-90
2024/02/14 13:43:39;;;;;;;6.53;4.32;;;11.70;99.90;;;;;;4958364;28;20023;-89
2024/02/14 13:46:04;;;;;;;5.88;3.83;;;10.90;99.90;;;;;;4953367;28;20481;-89
2024/02/14 13:48:30;;;;;;;7.88;3.80;;;11.70;99.90;;;;;;4961018;28;20033;-89
2024/02/14 13:50:56;;;;;;;5.20;3.67;;;10.90;99.90;;;;;;4967176;28;20397;-90
2024/02/14 13:53:22;;;;;;;4.95;3.72;;;10.90;99.90;;;;;;4975253;28;20022;-88
2024/02/14 13:55:48;;;;;;;6.40;4.38;;;12.10;99.90;;;;;;4950036;28;20055;-89
2024/02/14 13:58:16;;;;;;;7.88;4.03;;;11.40;99.90;;;;;;4973167;28;20397;-88
2024/02/14 14:00:42;;;;;;;5.93;3.70;;;10.90;99.90;;;;;;4948326;28;20026;-86
2024/02/14 14:03:08;;;;;;;5.28;3.75;;;11.80;99.90;;;;;;4958599;28;20042;-87
2024/02/14 14:05:34;;;;;;;6.25;3.95;;;11.20;99.90;;;;;;4950622;28;20031;-88
2024/02/14 14:08:00;;;;;;;6.05;3.90;;;12.00;99.90;;;;;;4956404;28;20030;-88
2024/02/14 14:10:28;;;;;;;5.35;3.40;;;10.90;99.90;;;;;;4981668;28;20027;-86
2024/02/14 14:12:54;;;;;;;5.18;4.10;;;11.50;99.90;;;;;;4967425;28;20011;-86
2024/02/14 14:15:23;;;;;;;5.00;3.67;;;11.80;99.90;;;;;;4979522;28;20033;-86
2024/02/14 14:17:49;;;;;;;5.30;3.58;;;11.00;99.90;;;;;;4974736;28;20022;-86
2024/02/14 14:20:15;;;;;;;4.72;3.20;;;11.00;99.90;;;;;;4959622;28;20035;-85
2024/02/14 14:22:40;;;;;;;6.05;3.47;;;12.00;99.90;;;;;;4953460;28;20071;-87
2024/02/14 14:25:07;;;;;;;5.97;3.75;;;11.00;99.90;;;;;;4954688;28;20041;-89
2024/02/14 14:27:34;;;;;;;6.80;3.70;;;11.00;99.90;;;;;;4954349;28;20110;-87
2024/02/14 14:29:59;;;;;;;6.25;4.05;;;11.00;99.90;;;;;;4974676;28;20031;-87
2024/02/14 14:32:25;;;;;;;6.05;3.60;;;11.30;99.90;;;;;;4973162;28;20050;-87
2024/02/14 14:34:51;;;;;;;4.50;3.30;;;11.10;99.90;;;;;;4958837;28;20101;-87
2024/02/14 14:37:16;;;;;;;6.22;3.88;;;11.10;99.90;;;;;;4978632;28;20031;-82
2024/02/14 14:39:44;;;;;;;4.90;3.72;;;11.10;99.90;;;;;;4964902;28;20031;-83
2024/02/14 14:42:10;;;;;;;6.63;4.03;;;11.70;99.90;;;;;;4977759;28;20469;-83
2024/02/14 14:44:35;;;;;;;5.05;3.72;;;11.30;99.90;;;;;;4978944;28;20062;-87
2024/02/14 14:47:02;;;;;;;7.28;4.13;;;11.80;99.90;;;;;;4959135;28;20030;-85
2024/02/14 14:49:27;;;;;;;5.30;3.45;;;12.00;99.90;;;;;;4975971;28;20030;-83
2024/02/14 14:52:19;;;;;;;;;;;;;;;;;;;;;
2024/02/14 14:55:40;;;;;;;4.40;3.47;;;11.00;99.90;;;;;;4980217;28;20491;-88
2024/02/14 15:20:08;;;;;;;;;;;;;;;;;;;;;
2024/02/14 15:23:29;;;;;;;7.22;3.65;;;11.10;99.90;;;;;;4844850;29;20109;-86
2024/02/14 15:36:22;;;;;;;6.68;4.57;;;11.10;99.90;;;;;;4822648;29;20051;-88
2024/02/14 15:39:38;;;;;;;6.63;4.10;;;10.90;99.90;;;;;;4818781;29;20057;-86
2024/02/14 15:43:02;;;;;;;6.38;4.80;;;10.60;99.90;;;;;;4809194;29;20042;-85
2024/02/14 15:46:10;;;;;;;;;;;;;;;;;;;;;
2024/02/14 15:52:34;;;;;;;7.65;4.80;;;10.90;99.90;;;;;;4838516;29;20038;-89
2024/02/14 15:55:44;;;;;;;7.45;4.82;;;11.00;99.90;;;;;;4850317;29;20026;-86
2024/02/14 16:02:45;;;;;;;;;;;;;;;;;;;;;
2024/02/14 16:05:21;;;;;;;7.75;4.50;;;12.10;99.90;;;;;;4953660;28;20107;-88
2024/02/14 16:07:54;;;;;;;6.03;5.15;;;11.00;99.90;;;;;;4942415;28;20011;-88
2024/02/14 16:10:22;;;;;;;7.45;5.20;;;11.00;99.90;;;;;;4938577;28;20498;-86
2024/02/14 16:12:48;;;;;;;7.65;5.63;;;11.00;99.90;;;;;;4944962;28;20034;-87
2024/02/14 16:15:20;;;;;;;9.05;5.72;;;11.00;99.90;;;;;;4945790;29;20026;-87
2024/02/14 16:17:47;;;;;;;8.43;5.75;;;11.00;99.90;;;;;;4962796;28;20107;-86
2024/02/14 16:20:14;;;;;;;7.65;5.40;;;11.00;99.90;;;;;;4960035;28;20043;-87
2024/02/14 16:22:42;;;;;;;8.40;6.13;;;11.10;99.90;;;;;;4942964;28;20032;-86
2024/02/14 16:25:08;;;;;;;8.27;5.70;;;10.80;99.90;;;;;;4949630;28;20066;-89
2024/02/14 16:27:45;;;;;;;9.75;5.63;;;11.10;99.90;;;;;;4961450;28;20042;-87
2024/02/14 16:30:15;;;;;;;9.15;6.20;;;11.10;99.90;;;;;;4958311;28;20399;-85
2024/02/14 16:32:40;;;;;;;9.70;5.65;;;11.10;99.90;;;;;;4949072;28;20031;-89
2024/02/14 16:35:06;;;;;;;8.18;5.20;;;11.10;99.90;;;;;;4970130;28;20038;-86
2024/02/14 16:37:32;;;;;;;8.07;5.43;;;11.10;99.90;;;;;;4981403;28;20712;-89
2024/02/14 16:39:58;;;;;;;12.93;9.57;;;11.30;99.90;;;;;;4962886;28;20035;-91
2024/02/14 16:42:24;;;;;;;10.35;5.43;;;11.00;99.90;;;;;;4964571;28;20034;-85
2024/02/14 16:44:49;;;;;;;11.35;6.07;;;11.10;99.90;;;;;;4963143;28;20101;-89
2024/02/14 16:47:18;;;;;;;10.43;7.72;;;11.10;99.90;;;;;;4961506;28;20061;-87
2024/02/14 16:49:44;;;;;;;7.55;4.82;;;11.40;99.90;;;;;;4958844;28;20035;-86
2024/02/14 16:52:09;;;;;;;8.35;6.35;;;11.10;99.90;;;;;;4964638;28;20043;-85
2024/02/14 16:54:41;;;;;;;9.00;5.65;;;12.00;99.90;;;;;;4965858;28;20030;-89
2024/02/14 16:57:09;;;;;;;6.78;4.65;;;11.10;99.90;;;;;;4979136;28;20031;-87
2024/02/14 16:59:37;;;;;;;7.68;5.10;;;11.00;99.90;;;;;;4980937;28;20046;-86
2024/02/14 17:02:06;;;;;;;8.73;5.40;;;11.10;99.90;;;;;;4963791;28;20043;-89
2024/02/14 17:04:36;;;;;;;7.65;4.40;;;11.10;99.90;;;;;;4978237;28;20050;-87
2024/02/14 17:07:01;;;;;;;6.93;4.37;;;11.10;99.90;;;;;;4976469;28;20041;-87
2024/02/14 17:09:27;;;;;;;7.75;4.50;;;11.20;99.90;;;;;;4962150;28;20050;-84
2024/02/14 17:11:53;;;;;;;7.70;4.75;;;11.20;99.90;;;;;;4979833;28;20030;-86
2024/02/14 17:14:29;;;;;;;7.30;4.25;;;11.70;99.90;;;;;;4980042;28;20049;-87
2024/02/14 17:16:59;;;;;;;7.03;4.13;;;12.00;99.90;;;;;;4967433;28;20019;-85
2024/02/14 17:19:32;;;;;;;8.05;4.18;;;11.30;99.90;;;;;;4967352;28;20038;-86
2024/02/14 17:22:00;;;;;;;5.90;3.70;;;11.90;99.90;;;;;;4965306;28;20027;-87
2024/02/14 17:24:26;;;;;;;7.25;3.47;;;11.30;99.90;;;;;;4964272;28;20051;-89
2024/02/14 17:26:52;;;;;;;6.72;4.43;;;11.60;99.90;;;;;;4981841;28;20038;-88
2024/02/14 17:29:18;;;;;;;7.45;4.07;;;10.80;99.90;;;;;;4979599;28;20031;-89
2024/02/14 17:31:48;;;;;;;6.93;4.18;;;11.30;99.90;;;;;;4976971;28;20520;-88
2024/02/14 17:34:14;;;;;;;31.77;21.08;;;11.40;99.90;;;;;;4957781;28;20035;-89
2024/02/14 17:36:46;;;;;;;10.25;4.28;;;12.00;99.90;;;;;;4958563;28;20050;-89
2024/02/14 17:39:12;;;;;;;26.60;13.13;;;11.40;99.90;;;;;;4940437;28;20031;-89
2024/02/14 17:41:39;;;;;;;24.67;12.30;;;12.30;99.90;;;;;;4942985;28;20035;-88
2024/02/14 17:44:05;;;;;;;63.03;30.75;;;11.30;99.90;;;;;;4952492;28;20035;-87
2024/02/14 17:46:34;;;;;;;20.15;11.15;;;12.20;99.90;;;;;;4949717;28;20097;-85
2024/02/14 17:49:02;;;;;;;14.65;7.78;;;11.30;99.90;;;;;;4949990;28;20027;-86
2024/02/14 17:51:31;;;;;;;13.95;5.30;;;11.90;99.90;;;;;;4950774;28;20038;-86
2024/02/14 17:54:07;;;;;;;13.02;8.63;;;11.30;99.90;;;;;;4942919;28;20027;-86
2024/02/14 17:56:33;;;;;;;6.82;4.20;;;11.20;99.90;;;;;;4938071;28;20042;-87
2024/02/14 17:59:01;;;;;;;8.63;4.35;;;11.40;99.90;;;;;;4953096;28;20028;-87
2024/02/14 18:01:47;;;;;;;12.25;6.97;;;11.80;99.90;;;;;;4940170;29;20126;-86
2024/02/14 18:04:15;;;;;;;11.07;5.90;;;11.70;99.90;;;;;;4957426;28;20178;-85
2024/02/14 18:06:44;;;;;;;8.38;5.28;;;11.40;99.90;;;;;;4942628;28;20085;-90
2024/02/14 18:15:39;;;;;;;9.52;4.63;;;11.40;99.90;;;;;;4960272;28;20066;-86
2024/02/14 18:19:30;;;;;;;;;;;;;;;;;;;;;
2024/02/14 18:21:26;;;;;;;10.38;5.07;;;11.10;99.90;;;;;;4947265;28;20031;-88
2024/02/14 18:24:43;;;;;;;12.88;5.13;;;11.20;99.90;;;;;;4947444;29;20039;-85
2024/02/14 18:27:34;;;;;;;;;;;;;;;;;;;;;
2024/02/14 18:30:09;;;;;;;7.90;4.72;;;11.20;99.90;;;;;;4961747;28;20119;-86
2024/02/14 18:36:26;;;;;;;;;;;;;;;;;;;;;
2024/02/14 18:39:30;;;;;;;9.43;4.60;;;11.40;99.90;;;;;;4867576;29;20717;-88